Time;durP1;ratioP1;P1;durP2;ratioP2;P2;SDS_P1;SDS_P2;PMS_P1;PMS_P2;Temp;Humidity;BMP_temperature;BMP_pressure;BME280_temperature;BME280_humidity;BME280_pressure;Samples;Min_cycle;Max_cycle;Signal;HPM_P1;HPM_P2
2022/11/15 00:09:34;;;;;;;9.55;6.47;;;;;;;21.77;58.04;100788.34;20989127;28;20081;-76
2022/11/15 00:19:35;;;;;;;7.68;5.95;;;;;;;21.73;58.14;100787.75;20990702;28;20043;-76
2022/11/15 00:29:56;;;;;;;7.82;6.32;;;;;;;21.76;58.42;100782.22;21031082;28;20189;-76
2022/11/15 00:39:58;;;;;;;7.87;6.30;;;;;;;21.74;58.01;100770.97;21037844;27;20078;-76
2022/11/15 00:49:58;;;;;;;9.32;5.75;;;;;;;21.68;57.92;100768.75;21012408;28;20048;-76
2022/11/15 00:59:59;;;;;;;8.63;6.38;;;;;;;21.69;58.04;100762.53;21004200;28;20425;-76
2022/11/15 01:09:59;;;;;;;7.40;5.88;;;;;;;21.65;58.30;100748.75;21023006;28;20139;-75
2022/11/15 01:20:00;;;;;;;6.68;5.50;;;;;;;21.63;58.11;100741.91;21023534;28;20410;-75
2022/11/15 01:30:00;;;;;;;6.93;5.43;;;;;;;21.62;58.22;100732.31;21019745;28;20511;-76
2022/11/15 01:40:01;;;;;;;8.63;5.32;;;;;;;21.59;58.32;100722.84;21030458;28;20486;-76
2022/11/15 01:50:09;;;;;;;6.28;5.22;;;;;;;21.56;58.13;100729.19;21039292;28;20134;-76
2022/11/15 02:00:10;;;;;;;7.28;5.47;;;;;;;21.57;57.85;100724.78;21018196;28;20563;-76
2022/11/15 02:10:17;;;;;;;7.07;5.60;;;;;;;21.52;58.20;100711.91;21021886;28;20048;-76
2022/11/15 02:20:43;;;;;;;6.65;5.35;;;;;;;21.53;58.18;100704.81;21011289;28;20036;-76
2022/11/15 02:31:31;;;;;;;7.60;5.22;;;;;;;21.51;57.97;100704.13;21041451;28;20143;-76
2022/11/15 02:41:41;;;;;;;6.53;5.20;;;;;;;21.48;58.11;100684.09;20993880;28;20402;-76
2022/11/15 02:51:45;;;;;;;6.35;5.18;;;;;;;21.48;58.07;100688.53;21020483;28;20052;-76
2022/11/15 03:02:04;;;;;;;6.68;5.00;;;;;;;21.47;58.39;100685.06;21026511;28;20166;-77
2022/11/15 03:12:15;;;;;;;5.88;4.70;;;;;;;21.44;58.10;100687.91;20980969;28;20130;-76
2022/11/15 03:22:20;;;;;;;5.80;4.70;;;;;;;21.44;58.16;100685.28;20964608;28;20375;-76
2022/11/15 03:32:25;;;;;;;4.90;4.38;;;;;;;21.42;58.31;100666.97;21001240;28;20046;-76
2022/11/15 03:42:32;;;;;;;5.32;4.75;;;;;;;21.41;58.19;100659.16;21004074;28;20033;-76
2022/11/15 03:52:34;;;;;;;4.90;4.40;;;;;;;21.39;58.50;100658.44;21005575;28;20171;-76
2022/11/15 04:02:35;;;;;;;5.77;4.57;;;;;;;21.33;58.06;100646.56;20998989;28;20036;-76
2022/11/15 04:12:39;;;;;;;5.22;4.47;;;;;;;21.33;58.27;100607.03;21018432;28;20055;-76
2022/11/15 04:32:58;;;;;;;5.97;4.45;;;;;;;21.31;58.16;100629.19;21017288;28;20028;-77
2022/11/15 04:42:58;;;;;;;5.03;4.38;;;;;;;21.31;58.09;100616.03;21030972;28;20479;-76
2022/11/15 04:52:59;;;;;;;5.22;4.40;;;;;;;21.31;58.29;100598.41;20999397;28;20549;-77
2022/11/15 05:13:18;;;;;;;7.53;4.70;;;;;;;21.38;59.09;100601.44;21019204;28;20044;-78
2022/11/15 05:23:19;;;;;;;5.28;4.53;;;;;;;21.50;60.01;100605.78;21031600;28;20055;-76
2022/11/15 05:33:19;;;;;;;12.57;4.80;;;;;;;21.57;60.45;100604.41;21015926;28;20530;-81
2022/11/15 05:43:20;;;;;;;12.07;4.40;;;;;;;21.66;60.26;100605.50;21037963;28;20399;-80
2022/11/15 05:53:22;;;;;;;9.95;4.10;;;;;;;21.72;59.35;100606.81;21028130;28;20036;-80
2022/11/15 06:03:23;;;;;;;10.48;4.22;;;;;;;21.79;58.61;100596.63;21008943;28;20059;-78
2022/11/15 06:13:23;;;;;;;12.02;6.25;;;;;;;21.65;54.95;100588.00;21010268;28;20044;-77
2022/11/15 06:23:23;;;;;;;10.93;5.22;;;;;;;21.73;57.23;100582.97;21005587;28;20078;-77
2022/11/15 06:33:24;;;;;;;9.85;4.60;;;;;;;21.80;57.78;100615.00;20994641;28;20511;-77
2022/11/15 06:43:25;;;;;;;8.65;4.57;;;;;;;21.84;58.05;100592.69;21020345;28;20387;-76
2022/11/15 06:53:26;;;;;;;6.03;4.43;;;;;;;21.86;58.00;100606.63;21022829;27;20385;-77
2022/11/15 07:03:27;;;;;;;6.25;4.63;;;;;;;21.88;57.80;100590.66;21013670;28;20449;-76
2022/11/15 07:13:29;;;;;;;5.32;4.40;;;;;;;21.91;57.37;100593.09;21014808;28;20036;-77
2022/11/15 07:23:30;;;;;;;5.57;4.03;;;;;;;21.95;57.97;100581.34;21013774;28;20397;-77
2022/11/15 07:33:30;;;;;;;6.25;4.30;;;;;;;21.94;57.98;100584.09;21012239;28;20033;-77
2022/11/15 07:43:33;;;;;;;8.07;4.87;;;;;;;21.90;56.54;100581.69;21013790;28;20892;-77
2022/11/15 07:53:33;;;;;;;;;;;;;;;21.90;57.00;100579.03;20981831;28;20265;-79
2022/11/15 08:03:34;;;;;;;8.98;4.47;;;;;;;21.91;56.78;100569.34;20935749;28;19927;-79
2022/11/15 08:13:35;;;;;;;7.90;4.45;;;;;;;21.96;56.98;100561.06;21002948;28;20048;-83
2022/11/15 08:23:36;;;;;;;9.98;4.63;;;;;;;21.96;56.90;100547.88;21003756;28;20032;-79
2022/11/15 08:33:36;;;;;;;10.68;4.65;;;;;;;21.95;56.74;100530.38;21000209;28;20069;-76
2022/11/15 08:43:37;;;;;;;8.85;4.93;;;;;;;22.00;57.02;100528.25;20995206;28;20490;-76
2022/11/15 08:53:37;;;;;;;7.97;4.78;;;;;;;22.05;56.89;100512.91;20915369;28;20044;-76
2022/11/15 09:03:40;;;;;;;6.47;4.60;;;;;;;22.09;56.81;100508.22;20997054;28;20450;-76
2022/11/15 09:13:41;;;;;;;7.45;5.07;;;;;;;22.11;56.62;100512.41;21011994;28;20036;-78
2022/11/15 09:23:41;;;;;;;8.43;5.40;;;;;;;22.13;56.58;100488.53;21042264;28;20046;-77
2022/11/15 09:33:45;;;;;;;8.30;4.53;;;;;;;22.11;56.64;100479.94;21015195;28;20410;-79
2022/11/15 09:44:11;;;;;;;9.50;5.50;;;;;;;22.10;56.83;100471.16;21028118;28;20044;-78
2022/11/15 09:54:22;;;;;;;7.57;5.50;;;;;;;22.11;56.93;100469.38;21029683;28;20063;-78
2022/11/15 10:04:25;;;;;;;9.38;5.78;;;;;;;22.10;56.87;100465.91;21037268;28;20059;-78
2022/11/15 10:14:30;;;;;;;8.07;5.68;;;;;;;22.10;57.30;100450.06;21031760;28;20067;-78
2022/11/15 10:24:35;;;;;;;8.30;6.13;;;;;;;22.09;57.06;100434.38;21029995;28;20044;-78
2022/11/15 10:34:36;;;;;;;11.00;6.28;;;;;;;22.03;57.08;100426.00;20857886;28;20640;-78
2022/11/15 10:44:43;;;;;;;7.80;6.05;;;;;;;22.03;56.99;100407.56;20964212;28;20173;-78
2022/11/15 10:54:51;;;;;;;8.57;6.65;;;;;;;22.02;57.11;100400.59;21026529;28;20081;-78
2022/11/15 11:04:52;;;;;;;9.55;6.80;;;;;;;22.02;57.27;100382.13;21010588;28;20054;-78
2022/11/15 11:14:52;;;;;;;9.63;6.45;;;;;;;22.05;56.97;100362.59;21027445;28;20040;-78
2022/11/15 11:24:58;;;;;;;9.10;5.82;;;;;;;22.07;57.00;100353.59;21017332;28;20036;-78
2022/11/15 11:35:27;;;;;;;8.73;6.40;;;;;;;22.05;56.97;100352.03;21011057;28;20075;-77
2022/11/15 11:46:04;;;;;;;8.90;6.82;;;;;;;22.06;57.06;100345.81;20984941;28;20106;-78
2022/11/15 11:56:27;;;;;;;8.23;6.63;;;;;;;22.07;56.88;100327.22;21011616;28;20050;-78
2022/11/15 12:06:35;;;;;;;11.95;6.68;;;;;;;22.07;56.89;100307.94;21005733;28;20047;-79
2022/11/15 12:16:39;;;;;;;9.70;6.50;;;;;;;22.07;57.19;100292.13;21010945;28;20135;-78
2022/11/15 12:26:47;;;;;;;8.23;6.30;;;;;;;22.09;56.89;100282.25;21023419;28;20051;-80
2022/11/15 12:36:51;;;;;;;10.15;6.53;;;;;;;22.08;57.15;100270.03;21016531;28;20041;-79
2022/11/15 12:46:57;;;;;;;7.72;6.32;;;;;;;22.07;56.87;100263.94;21015575;28;20078;-80
2022/11/15 12:57:03;;;;;;;10.70;6.97;;;;;;;22.07;57.18;100260.47;21031243;27;20044;-81
2022/11/15 13:07:07;;;;;;;8.93;6.72;;;;;;;22.06;56.95;100238.53;21018775;28;20168;-74
2022/11/15 13:17:16;;;;;;;10.30;7.18;;;;;;;22.05;57.23;100243.94;20997150;28;20040;-75
2022/11/15 13:27:19;;;;;;;12.07;7.68;;;;;;;22.05;57.33;100250.03;20994578;28;20048;-75
2022/11/15 13:37:19;;;;;;;10.05;7.03;;;;;;;22.05;57.35;100231.56;21013483;28;20063;-75
2022/11/15 13:47:21;;;;;;;9.35;7.45;;;;;;;22.04;57.17;100224.63;21009974;28;20048;-75
2022/11/15 13:57:28;;;;;;;12.50;8.68;;;;;;;22.02;56.85;100196.72;21007000;28;20500;-76
2022/11/15 14:07:29;;;;;;;12.07;7.95;;;;;;;22.02;56.97;100196.72;20983905;28;20060;-76
2022/11/15 14:17:30;;;;;;;10.50;7.53;;;;;;;22.04;57.00;100186.91;21001134;28;20234;-80
2022/11/15 14:27:31;;;;;;;11.57;8.02;;;;;;;22.01;56.87;100179.25;21003191;28;20045;-78
2022/11/15 14:37:34;;;;;;;13.77;7.75;;;;;;;21.98;57.14;100164.50;20977857;28;20446;-78
2022/11/15 14:47:35;;;;;;;10.73;7.90;;;;;;;21.99;56.91;100157.44;21008672;28;20040;-78
2022/11/15 14:57:36;;;;;;;11.27;7.80;;;;;;;21.99;57.06;100136.38;21013758;28;20047;-78
2022/11/15 15:07:43;;;;;;;9.70;7.20;;;;;;;21.96;56.91;100141.88;20763200;28;20505;-78
2022/11/15 15:17:43;;;;;;;9.73;7.32;;;;;;;21.96;57.17;100133.97;20779700;28;20069;-78
2022/11/15 15:27:44;;;;;;;9.18;7.05;;;;;;;21.92;56.99;100117.56;20727655;28;20369;-78
2022/11/15 15:37:46;;;;;;;16.13;7.70;;;;;;;21.94;57.80;100128.00;20748203;28;20044;-78
2022/11/15 15:47:49;;;;;;;13.35;7.80;;;;;;;21.97;57.34;100133.00;20735527;28;20038;-78
2022/11/15 15:57:49;;;;;;;8.68;7.30;;;;;;;21.95;56.78;100122.59;20742174;28;20045;-77
2022/11/15 16:07:50;;;;;;;8.73;7.35;;;;;;;21.92;57.15;100114.94;20733743;28;20062;-77
2022/11/15 16:17:56;;;;;;;13.02;7.25;;;;;;;21.91;57.36;100106.22;20675986;28;20462;-80
2022/11/15 16:27:56;;;;;;;12.18;7.80;;;;;;;21.84;56.69;100112.97;20678002;28;20034;-81
2022/11/15 16:37:57;;;;;;;9.40;7.07;;;;;;;21.79;56.76;100119.56;20701139;28;20092;-81
2022/11/15 16:47:57;;;;;;;9.18;6.85;;;;;;;21.67;56.93;100101.22;20691052;28;20408;-81
2022/11/15 16:57:57;;;;;;;9.43;7.20;;;;;;;21.76;56.72;100091.69;20680604;28;20101;-79
2022/11/15 17:07:58;;;;;;;9.35;6.82;;;;;;;;;;20689634;28;20058;-80
2022/11/15 17:17:59;;;;;;;8.45;6.60;;;;;;;21.70;56.52;100081.66;20674523;28;20058;-81
2022/11/15 17:27:59;;;;;;;13.70;7.30;;;;;;;21.63;56.56;100062.91;20665202;28;20108;-80
2022/11/15 17:38:00;;;;;;;9.98;7.65;;;;;;;21.58;56.78;100060.66;20672295;28;20030;-81
2022/11/15 17:48:00;;;;;;;11.38;7.90;;;;;;;21.58;56.19;100052.75;20660535;28;20454;-80
2022/11/15 17:58:00;;;;;;;16.40;8.07;;;;;;;21.55;56.61;100031.06;20660952;28;21279;-80
2022/11/15 18:08:01;;;;;;;13.60;7.97;;;;;;;21.50;56.73;100020.94;20669476;28;20103;-80
2022/11/15 18:18:01;;;;;;;11.98;8.02;;;;;;;21.48;56.46;100022.03;20666389;28;20049;-81
2022/11/15 18:28:01;;;;;;;15.32;9.27;;;;;;;21.54;58.47;100016.22;20654122;28;20084;-79
2022/11/15 18:38:02;;;;;;;13.80;8.48;;;;;;;21.56;58.68;100009.91;20660981;28;20101;-79
2022/11/15 18:48:03;;;;;;;16.80;9.07;;;;;;;21.58;58.73;100004.50;20667925;28;20042;-82
2022/11/15 18:58:03;;;;;;;20.42;9.45;;;;;;;21.58;59.17;99994.81;20652804;28;20100;-82
2022/11/15 19:08:03;;;;;;;22.67;8.95;;;;;;;21.55;59.58;99981.84;20669612;28;20042;-80
2022/11/15 19:18:04;;;;;;;17.92;8.52;;;;;;;21.59;59.67;99974.53;20670371;28;20038;-79
2022/11/15 19:28:04;;;;;;;15.35;9.05;;;;;;;21.62;59.99;99962.91;20667485;28;20050;-80
2022/11/15 19:38:05;;;;;;;15.82;9.00;;;;;;;21.62;60.43;99953.22;20654395;28;20065;-79
2022/11/15 19:48:06;;;;;;;15.25;8.85;;;;;;;21.68;60.21;99950.06;20679525;28;20658;-79
2022/11/15 19:58:06;;;;;;;14.95;9.57;;;;;;;21.68;59.96;99942.16;20692067;28;20051;-79
2022/11/15 20:08:07;;;;;;;12.85;8.65;;;;;;;21.67;59.56;99932.56;20600761;28;20544;-81
2022/11/15 20:18:07;;;;;;;26.73;9.20;;;;;;;21.68;59.68;99910.53;20627484;28;20129;-80
2022/11/15 20:28:10;;;;;;;19.13;10.07;;;;;;;21.59;58.38;99901.63;20661362;28;20172;-78
2022/11/15 20:38:12;;;;;;;18.27;10.73;;;;;;;21.58;58.59;99901.75;20668271;28;20505;-78
2022/11/15 20:48:13;;;;;;;20.27;10.05;;;;;;;21.54;58.88;99887.97;20652981;28;20035;-79
2022/11/15 20:58:15;;;;;;;15.40;10.07;;;;;;;21.52;58.91;99874.13;20680371;28;20057;-79
2022/11/15 21:08:16;;;;;;;14.55;9.07;;;;;;;21.49;59.03;99874.38;20672124;28;20295;-77
2022/11/15 21:18:16;;;;;;;13.23;9.35;;;;;;;21.48;58.70;99867.44;20679775;28;20066;-80
2022/11/15 21:28:17;;;;;;;16.10;10.10;;;;;;;21.46;58.87;99855.38;20692053;28;20045;-79
2022/11/15 21:38:17;;;;;;;13.70;9.43;;;;;;;21.45;58.91;99844.00;20696586;28;20045;-77
2022/11/15 21:48:18;;;;;;;15.10;9.02;;;;;;;21.45;59.13;99838.75;20685694;28;20132;-77
2022/11/15 21:58:19;;;;;;;15.77;10.10;;;;;;;21.46;59.25;99840.41;20688830;28;20045;-78
2022/11/15 22:08:20;;;;;;;14.52;9.93;;;;;;;21.46;58.81;99840.41;20676636;28;20504;-76
2022/11/15 22:18:24;;;;;;;14.00;9.63;;;;;;;21.43;58.90;99835.41;20674826;28;20054;-75
2022/11/15 22:28:25;;;;;;;13.23;9.10;;;;;;;21.42;59.11;99816.13;20674943;28;20053;-75
2022/11/15 22:38:26;;;;;;;12.63;8.80;;;;;;;21.39;58.74;99792.69;20672550;28;20125;-75
2022/11/15 22:48:30;;;;;;;14.25;9.27;;;;;;;21.41;59.31;99787.28;20675624;28;20068;-76
2022/11/15 22:58:31;;;;;;;12.88;8.88;;;;;;;21.39;59.09;99782.16;20677481;28;20042;-76
2022/11/15 23:08:32;;;;;;;12.77;8.82;;;;;;;21.37;58.84;99765.69;20653840;28;20050;-75
2022/11/15 23:18:34;;;;;;;12.25;8.90;;;;;;;21.37;58.55;99760.41;20678549;28;20033;-75
2022/11/15 23:28:34;;;;;;;12.93;8.70;;;;;;;21.36;58.94;99750.00;20688345;28;20404;-75
2022/11/15 23:38:36;;;;;;;10.65;7.68;;;;;;;21.34;59.12;99726.44;20700544;28;20044;-75
2022/11/15 23:48:36;;;;;;;12.73;8.90;;;;;;;21.35;59.27;99722.84;20697008;28;20117;-76
2022/11/15 23:58:37;;;;;;;12.20;8.63;;;;;;;21.35;59.17;99703.53;20695373;28;21105;-75
